Cumby, Texas
Current Conditions -  °F | °C
As of 10:15 AM on Thursday 30 Oct 2014 (Local Time) from KSLR Reporting Station
Clear Clear  
Wind Chill: 18°   Ceiling: Unl
Heat Index: 18°   Visibility: 10mi
Dew Point:   Wind: 7mph
Humidity: 53%   Direction: 180°S
Pressure: 30.2"   Gusts: NA
Location:  33.14°N, 95.84°W
Report Text: KSLR 301515Z AUTO 18006KT 10SM CLR 18/09 A3020 RMK AO2 T01810085
Loading
Personal Weather Stations






























Interactive Weather Map
Tropical Storm Tracking
New forecast layout! Learn more

10-Day Weather Forecast

Advertisements
Track Severe Weather on mobile